createdAt,value
2022-11-19T00:00:47.630Z,99314.44
2022-11-19T00:05:50.492Z,99308.00
2022-11-19T00:10:52.784Z,99329.09
2022-11-19T00:15:54.948Z,99320.03
2022-11-19T00:21:03.443Z,99322.22
2022-11-19T00:26:15.072Z,99323.41
2022-11-19T00:31:17.407Z,99325.59
2022-11-19T00:36:19.137Z,99329.97
2022-11-19T00:41:20.810Z,99332.03
2022-11-19T00:46:30.965Z,99339.88
2022-11-19T00:51:33.279Z,99346.78
2022-11-19T00:56:34.981Z,99354.13
2022-11-19T01:01:36.748Z,99350.88
2022-11-19T01:06:38.459Z,99348.56
2022-11-19T01:11:40.328Z,99352.00
2022-11-19T01:16:42.437Z,99352.00
2022-11-19T01:21:44.109Z,99362.53
2022-11-19T01:26:46.370Z,99370.03
2022-11-19T01:31:50.661Z,99368.44
2022-11-19T01:36:53.187Z,99360.06
2022-11-19T01:41:55.336Z,99363.56
2022-11-19T01:46:57.472Z,99370.63
2022-11-19T01:52:02.940Z,99384.69
2022-11-19T01:57:10.543Z,99394.81
2022-11-19T02:02:13.583Z,99394.97
2022-11-19T02:07:16.722Z,99394.97
2022-11-19T02:12:49.539Z,99405.50
2022-11-19T02:18:11.038Z,99403.47
2022-11-19T02:23:34.479Z,99403.47
2022-11-19T02:28:46.628Z,99401.31
2022-11-19T02:33:56.362Z,99396.50
2022-11-19T02:39:06.607Z,99396.50
2022-11-19T02:44:40.568Z,99403.22
2022-11-19T02:49:47.487Z,99416.38
2022-11-19T02:54:49.277Z,99416.38
2022-11-19T03:00:17.334Z,99411.88
2022-11-19T03:05:23.351Z,99400.13
2022-11-19T03:10:31.481Z,99397.84
2022-11-19T03:15:51.673Z,99417.16
2022-11-19T03:21:04.335Z,99417.16
2022-11-19T03:26:40.740Z,99418.47
2022-11-19T03:31:47.610Z,99430.69
2022-11-19T03:36:53.539Z,99444.97
2022-11-19T03:41:56.964Z,99444.97
2022-11-19T03:47:08.283Z,99443.31
2022-11-19T03:52:12.745Z,99450.19
2022-11-19T03:57:20.132Z,99450.19
2022-11-19T04:02:22.069Z,99460.25
2022-11-19T04:07:24.471Z,99460.25
2022-11-19T04:12:26.165Z,99455.25
2022-11-19T04:17:27.907Z,99465.22
2022-11-19T04:22:29.579Z,99465.22
2022-11-19T04:27:31.244Z,99465.34
2022-11-19T04:32:32.908Z,99468.78
2022-11-19T04:37:34.656Z,99469.28
2022-11-19T04:42:36.317Z,99462.56
2022-11-19T04:47:38.011Z,99462.56
2022-11-19T04:52:41.305Z,99467.34
2022-11-19T04:57:43.379Z,99466.44
2022-11-19T05:02:45.674Z,99471.97
2022-11-19T05:07:47.411Z,99477.03
2022-11-19T05:12:49.504Z,99474.06
2022-11-19T05:17:51.228Z,99477.38
2022-11-19T05:22:53.051Z,99479.19
2022-11-19T05:27:54.804Z,99487.97
2022-11-19T05:32:56.779Z,99487.97
2022-11-19T05:37:58.489Z,99491.44
2022-11-19T05:43:06.228Z,99497.78
2022-11-19T05:48:07.906Z,99503.00
2022-11-19T05:53:10.173Z,99504.84
2022-11-19T05:58:13.780Z,99504.72
2022-11-19T06:03:15.562Z,99508.50
2022-11-19T06:08:17.578Z,99511.84
2022-11-19T06:13:19.323Z,99523.16
2022-11-19T06:18:21.011Z,99527.19
2022-11-19T06:23:22.677Z,99533.31
2022-11-19T06:28:24.403Z,99539.31
2022-11-19T06:33:26.091Z,99542.69
2022-11-19T06:38:27.781Z,99559.38
2022-11-19T06:43:29.471Z,99556.09
2022-11-19T06:48:31.194Z,99548.38
2022-11-19T06:53:33.284Z,99548.38
2022-11-19T06:58:35.121Z,99556.84
2022-11-19T07:03:36.861Z,99561.50
2022-11-19T07:08:39.482Z,99561.50
2022-11-19T07:13:59.060Z,99570.91
2022-11-19T07:19:03.091Z,99575.63
2022-11-19T07:24:07.472Z,99571.66
2022-11-19T07:29:11.338Z,99564.78
2022-11-19T07:34:12.986Z,99573.56
2022-11-19T07:39:14.660Z,99559.47
2022-11-19T07:44:16.372Z,99555.84
2022-11-19T07:49:18.714Z,99558.53
2022-11-19T07:54:20.743Z,99552.13
2022-11-19T07:59:22.678Z,99547.72
2022-11-19T08:04:27.006Z,99564.88
2022-11-19T08:09:28.743Z,99563.28
2022-11-19T08:14:30.436Z,99559.41
2022-11-19T08:19:32.146Z,99559.34
2022-11-19T08:24:33.796Z,99556.34
2022-11-19T08:29:35.489Z,99568.03
2022-11-19T08:34:37.244Z,99564.78
2022-11-19T08:39:40.429Z,99562.81
2022-11-19T08:44:42.099Z,99564.44
2022-11-19T08:49:43.758Z,99557.47
2022-11-19T08:54:45.451Z,99547.31
2022-11-19T08:59:47.201Z,99549.31
2022-11-19T09:04:48.970Z,99548.22
2022-11-19T09:09:50.674Z,99548.75
2022-11-19T09:14:52.347Z,99558.66
2022-11-19T09:19:54.035Z,99555.91
2022-11-19T09:24:55.756Z,99563.91
2022-11-19T09:29:57.442Z,99553.56
2022-11-19T09:34:59.107Z,99551.59
2022-11-19T09:40:00.930Z,99547.66
2022-11-19T09:45:33.333Z,99555.03
2022-11-19T09:50:53.074Z,99557.69
2022-11-19T09:55:55.310Z,99544.66
2022-11-19T10:00:57.429Z,99535.25
2022-11-19T10:06:18.000Z,99541.91
2022-11-19T10:11:31.790Z,99550.47
2022-11-19T10:16:42.055Z,99551.38
2022-11-19T10:22:09.895Z,99540.22
2022-11-19T10:27:19.542Z,99535.72
2022-11-19T10:32:24.176Z,99537.19
2022-11-19T10:37:32.159Z,99540.16
2022-11-19T10:42:33.794Z,99530.19
2022-11-19T10:47:44.470Z,99516.50
2022-11-19T10:52:53.055Z,99514.09
2022-11-19T10:58:22.845Z,99514.91
2022-11-19T11:03:34.797Z,99510.94
2022-11-19T11:08:52.954Z,99507.28
2022-11-19T11:14:18.747Z,99500.59
2022-11-19T11:19:22.005Z,99487.59
2022-11-19T11:24:36.576Z,99481.09
2022-11-19T11:29:38.258Z,99472.34
2022-11-19T11:34:43.945Z,99468.22
2022-11-19T11:39:50.959Z,99470.94
2022-11-19T11:44:54.356Z,99468.22
2022-11-19T11:50:06.739Z,99470.88
2022-11-19T11:55:31.713Z,99464.69
2022-11-19T12:00:40.806Z,99457.41
2022-11-19T12:06:04.356Z,99457.03
2022-11-19T12:11:12.058Z,99450.38
2022-11-19T12:16:42.554Z,99458.53
2022-11-19T12:21:56.625Z,99448.47
2022-11-19T12:27:01.090Z,99444.06
2022-11-19T12:32:17.861Z,99434.22
2022-11-19T12:37:33.578Z,99425.94
2022-11-19T12:43:02.043Z,99418.13
2022-11-19T12:48:13.342Z,99415.81
2022-11-19T12:53:27.795Z,99413.56
2022-11-19T12:58:35.468Z,99417.22
2022-11-19T13:03:49.271Z,99417.84
2022-11-19T13:09:34.670Z,99412.34
2022-11-19T13:14:54.645Z,99416.72
2022-11-19T13:20:01.379Z,99417.50
2022-11-19T13:25:05.472Z,99410.47
2022-11-19T13:30:17.833Z,99404.63
2022-11-19T13:35:33.130Z,99407.50
2022-11-19T13:40:59.114Z,99413.28
2022-11-19T13:46:26.656Z,99412.41
2022-11-19T13:51:47.701Z,99402.44
2022-11-19T13:56:51.630Z,99410.72
2022-11-19T14:02:10.999Z,99411.59
2022-11-19T14:07:22.892Z,99415.81
2022-11-19T14:12:52.589Z,99410.44
2022-11-19T14:18:20.801Z,99415.28
2022-11-19T14:24:06.868Z,99413.19
2022-11-19T14:29:40.380Z,99425.03
2022-11-19T14:34:46.937Z,99415.69
2022-11-19T14:39:57.361Z,99425.31
2022-11-19T14:45:02.988Z,99418.25
2022-11-19T14:50:09.026Z,99421.13
2022-11-19T14:55:16.707Z,99420.25
2022-11-19T15:00:18.327Z,99423.22
2022-11-19T15:05:21.531Z,99424.50
2022-11-19T15:10:27.577Z,99426.50
2022-11-19T15:15:38.178Z,99415.63
2022-11-19T15:21:14.013Z,99416.25
2022-11-19T15:26:41.439Z,99422.16
2022-11-19T15:32:14.185Z,99420.06
2022-11-19T15:37:19.177Z,99421.94
2022-11-19T15:42:42.071Z,99425.63
2022-11-19T15:48:18.272Z,99428.78
2022-11-19T15:53:24.419Z,99428.19
2022-11-19T15:58:30.386Z,99425.25
2022-11-19T16:03:32.663Z,99434.94
2022-11-19T16:08:35.086Z,99423.38
2022-11-19T16:13:55.295Z,99424.25
2022-11-19T16:18:56.971Z,99424.53
2022-11-19T16:24:18.993Z,99429.81
2022-11-19T16:29:23.615Z,99413.66
2022-11-19T16:34:29.952Z,99413.22
2022-11-19T16:39:33.152Z,99413.19
2022-11-19T16:44:35.249Z,99411.97
2022-11-19T16:49:49.213Z,99411.06
2022-11-19T16:54:51.310Z,99406.09
2022-11-19T16:59:59.435Z,99412.81
2022-11-19T17:05:12.448Z,99413.00
2022-11-19T17:10:14.074Z,99411.88
2022-11-19T17:15:44.854Z,99410.22
2022-11-19T17:20:50.932Z,99416.94
2022-11-19T17:26:08.274Z,99424.53
2022-11-19T17:31:19.610Z,99428.97
2022-11-19T17:36:22.411Z,99433.97
2022-11-19T17:41:46.139Z,99433.91
2022-11-19T17:46:47.922Z,99450.88
2022-11-19T17:51:49.604Z,99448.44
2022-11-19T17:56:51.262Z,99453.00
2022-11-19T18:01:53.518Z,99455.50
2022-11-19T18:06:55.222Z,99456.09
2022-11-19T18:11:56.916Z,99458.47
2022-11-19T18:16:58.697Z,99467.03
2022-11-19T18:22:00.447Z,99471.16
2022-11-19T18:27:02.179Z,99469.63
2022-11-19T18:32:03.919Z,99477.44
2022-11-19T18:37:05.712Z,99477.88
2022-11-19T18:42:10.868Z,99480.53
2022-11-19T18:47:14.754Z,99482.56
2022-11-19T18:52:16.406Z,99473.00
2022-11-19T18:57:18.067Z,99477.34
2022-11-19T19:02:19.744Z,99476.28
2022-11-19T19:07:21.571Z,99480.97
2022-11-19T19:12:23.308Z,99475.38
2022-11-19T19:17:25.134Z,99477.06
2022-11-19T19:22:26.913Z,99471.38
2022-11-19T19:27:28.680Z,99486.28
2022-11-19T19:32:30.393Z,99479.13
2022-11-19T19:37:32.044Z,99476.50
2022-11-19T19:42:38.439Z,99484.97
2022-11-19T19:47:42.664Z,99486.47
2022-11-19T19:52:44.315Z,99489.75
2022-11-19T19:57:45.977Z,99490.44
2022-11-19T20:02:49.020Z,99497.03
2022-11-19T20:07:50.680Z,99493.25
2022-11-19T20:13:10.637Z,99494.16
2022-11-19T20:18:12.292Z,99498.81
2022-11-19T20:23:13.964Z,99502.13
2022-11-19T20:28:15.645Z,99497.09
2022-11-19T20:33:17.778Z,99502.78
2022-11-19T20:38:19.826Z,99497.44
2022-11-19T20:43:45.803Z,99500.00
2022-11-19T20:48:50.611Z,99497.50
2022-11-19T20:53:52.581Z,99501.38
2022-11-19T20:58:54.522Z,99497.00
2022-11-19T21:03:59.732Z,99506.19
2022-11-19T21:09:01.731Z,99505.44
2022-11-19T21:14:04.095Z,99495.41
2022-11-19T21:19:05.804Z,99496.13
2022-11-19T21:24:07.832Z,99485.59
2022-11-19T21:29:09.538Z,99479.41
2022-11-19T21:34:17.687Z,99480.34
2022-11-19T21:39:20.472Z,99490.75
2022-11-19T21:44:22.572Z,99492.38
2022-11-19T21:49:24.381Z,99485.97
2022-11-19T21:54:26.127Z,99497.94
2022-11-19T21:59:27.779Z,99489.31
2022-11-19T22:04:29.498Z,99483.56
2022-11-19T22:09:31.386Z,99478.84
2022-11-19T22:14:33.039Z,99472.94
2022-11-19T22:19:36.003Z,99470.25
2022-11-19T22:24:37.683Z,99473.88
2022-11-19T22:29:39.512Z,99472.69
2022-11-19T22:34:41.181Z,99469.84
2022-11-19T22:39:43.950Z,99467.72
2022-11-19T22:44:45.648Z,99456.97
2022-11-19T22:49:47.348Z,99462.75
2022-11-19T22:54:49.101Z,99457.00
2022-11-19T22:59:50.773Z,99460.31
2022-11-19T23:04:52.899Z,99456.59
2022-11-19T23:09:54.566Z,99451.34
2022-11-19T23:14:56.529Z,99447.13
2022-11-19T23:20:03.106Z,99450.53
2022-11-19T23:25:06.567Z,99450.56
2022-11-19T23:30:08.751Z,99443.66
2022-11-19T23:35:10.408Z,99442.91
2022-11-19T23:40:12.232Z,99435.97
2022-11-19T23:45:13.932Z,99442.50
2022-11-19T23:50:15.660Z,99445.28
2022-11-19T23:55:17.320Z,99440.88
